createdAt,value
2018-10-19T00:00:15.921Z,960.41
2018-10-19T00:01:15.874Z,960.39
2018-10-19T00:02:15.879Z,960.41
2018-10-19T00:03:16.040Z,960.4
2018-10-19T00:04:15.888Z,960.36
2018-10-19T00:05:16.102Z,960.42
2018-10-19T00:06:15.898Z,960.4
2018-10-19T00:07:15.901Z,960.43
2018-10-19T00:08:15.905Z,960.42
2018-10-19T00:09:16.001Z,960.43
2018-10-19T00:10:15.917Z,960.42
2018-10-19T00:11:16.042Z,960.45
2018-10-19T00:12:15.924Z,960.47
2018-10-19T00:13:15.928Z,960.46
2018-10-19T00:14:15.933Z,960.46
2018-10-19T00:15:16.044Z,960.42
2018-10-19T00:16:15.942Z,960.43
2018-10-19T00:17:16.033Z,960.47
2018-10-19T00:18:15.951Z,960.47
2018-10-19T00:19:15.953Z,960.47
2018-10-19T00:20:16.009Z,960.41
2018-10-19T00:21:15.963Z,960.46
2018-10-19T00:22:15.972Z,960.47
2018-10-19T00:23:15.980Z,960.37
2018-10-19T00:24:15.974Z,960.41
2018-10-19T00:25:15.978Z,960.42
2018-10-19T00:26:15.982Z,960.44
2018-10-19T00:27:16.049Z,960.38
2018-10-19T00:28:15.989Z,960.39
2018-10-19T00:29:16.065Z,960.34
2018-10-19T00:30:16.001Z,960.34
2018-10-19T00:31:16.006Z,960.34
2018-10-19T00:32:16.010Z,960.32
2018-10-19T00:33:16.196Z,960.31
2018-10-19T00:34:16.019Z,960.34
2018-10-19T00:35:16.024Z,960.29
2018-10-19T00:36:16.027Z,960.28
2018-10-19T00:37:16.079Z,960.27
2018-10-19T00:38:16.034Z,960.23
2018-10-19T00:39:16.087Z,960.26
2018-10-19T00:40:16.043Z,960.28
2018-10-19T00:41:16.097Z,960.29
2018-10-19T00:42:16.052Z,960.3
2018-10-19T00:43:16.055Z,960.31
2018-10-19T00:44:16.062Z,960.26
2018-10-19T00:45:16.159Z,960.3
2018-10-19T00:46:16.071Z,960.27
2018-10-19T00:47:16.182Z,960.27
2018-10-19T00:48:16.076Z,960.27
2018-10-19T00:49:16.230Z,960.32
2018-10-19T00:50:16.084Z,960.32
2018-10-19T00:51:16.257Z,960.35
2018-10-19T00:52:16.092Z,960.3
2018-10-19T00:53:16.312Z,960.29
2018-10-19T00:54:16.152Z,960.35
2018-10-19T00:55:16.109Z,960.3
2018-10-19T00:56:16.107Z,960.35
2018-10-19T00:57:16.202Z,960.29
2018-10-19T00:58:16.117Z,960.3
2018-10-19T00:59:16.125Z,960.3
2018-10-19T01:00:16.124Z,960.32
2018-10-19T01:01:16.128Z,960.27
2018-10-19T01:02:16.132Z,960.32
2018-10-19T01:03:16.263Z,960.31
2018-10-19T01:04:16.190Z,960.33
2018-10-19T01:05:16.263Z,960.27
2018-10-19T01:06:16.149Z,960.26
2018-10-19T01:07:16.155Z,960.25
2018-10-19T01:08:16.155Z,960.22
2018-10-19T01:09:16.160Z,960.28
2018-10-19T01:10:16.163Z,960.23
2018-10-19T01:11:16.264Z,960.26
2018-10-19T01:12:16.171Z,960.28
2018-10-19T01:13:16.177Z,960.33
2018-10-19T01:14:16.179Z,960.3
2018-10-19T01:15:16.251Z,960.29
2018-10-19T01:16:16.190Z,960.28
2018-10-19T01:17:16.290Z,960.22
2018-10-19T01:18:16.194Z,960.29
2018-10-19T01:19:16.247Z,960.26
2018-10-19T01:20:16.204Z,960.25
2018-10-19T01:21:16.206Z,960.24
2018-10-19T01:22:16.213Z,960.25
2018-10-19T01:23:16.319Z,960.24
2018-10-19T01:24:16.220Z,960.27
2018-10-19T01:25:16.225Z,960.25
2018-10-19T01:26:16.233Z,960.29
2018-10-19T01:27:16.316Z,960.35
2018-10-19T01:28:16.235Z,960.32
2018-10-19T01:29:16.240Z,960.32
2018-10-19T01:30:16.244Z,960.36
2018-10-19T01:31:16.251Z,960.37
2018-10-19T01:32:16.251Z,960.39
2018-10-19T01:33:16.317Z,960.4
2018-10-19T01:34:16.260Z,960.41
2018-10-19T01:35:16.376Z,960.44
2018-10-19T01:36:16.267Z,960.38
2018-10-19T01:37:16.272Z,960.36
2018-10-19T01:38:16.326Z,960.33
2018-10-19T01:39:16.278Z,960.32
2018-10-19T01:40:16.282Z,960.32
2018-10-19T01:41:16.408Z,960.32
2018-10-19T01:42:16.292Z,960.3
2018-10-19T01:43:16.295Z,960.29
2018-10-19T01:44:16.300Z,960.3
2018-10-19T01:45:16.354Z,960.31
2018-10-19T01:46:16.307Z,960.28
2018-10-19T01:47:16.311Z,960.29
2018-10-19T01:48:16.312Z,960.26
2018-10-19T01:49:16.318Z,960.3
2018-10-19T01:50:16.321Z,960.22
2018-10-19T01:51:16.442Z,960.22
2018-10-19T01:52:16.327Z,960.24
2018-10-19T01:53:16.532Z,960.2
2018-10-19T01:54:16.334Z,960.24
2018-10-19T01:55:16.344Z,960.21
2018-10-19T01:56:16.344Z,960.24
2018-10-19T01:57:16.400Z,960.23
2018-10-19T01:58:16.353Z,960.27
2018-10-19T01:59:16.463Z,960.19
2018-10-19T02:00:16.359Z,960.26
2018-10-19T02:01:16.362Z,960.28
2018-10-19T02:02:16.365Z,960.27
2018-10-19T02:03:16.501Z,960.27
2018-10-19T02:04:16.372Z,960.23
2018-10-19T02:05:16.377Z,960.24
2018-10-19T02:06:16.380Z,960.23
2018-10-19T02:07:16.384Z,960.25
2018-10-19T02:08:16.390Z,960.28
2018-10-19T02:09:16.442Z,960.25
2018-10-19T02:10:16.399Z,960.25
2018-10-19T02:11:16.401Z,960.27
2018-10-19T02:12:16.403Z,960.3
2018-10-19T02:13:16.407Z,960.29
2018-10-19T02:14:16.411Z,960.28
2018-10-19T02:15:16.505Z,960.26
2018-10-19T02:16:16.420Z,960.28
2018-10-19T02:17:16.422Z,960.25
2018-10-19T02:18:16.426Z,960.28
2018-10-19T02:19:16.430Z,960.28
2018-10-19T02:20:16.439Z,960.29
2018-10-19T02:21:16.457Z,960.31
2018-10-19T02:22:16.439Z,960.3
2018-10-19T02:23:16.529Z,960.31
2018-10-19T02:24:16.448Z,960.32
2018-10-19T02:25:16.452Z,960.32
2018-10-19T02:26:16.453Z,960.3
2018-10-19T02:27:16.663Z,960.33
2018-10-19T02:28:16.461Z,960.32
2018-10-19T02:29:16.466Z,960.33
2018-10-19T02:30:16.471Z,960.37
2018-10-19T02:31:16.474Z,960.33
2018-10-19T02:32:16.478Z,960.36
2018-10-19T02:33:16.580Z,960.37
2018-10-19T02:34:16.483Z,960.35
2018-10-19T02:35:16.522Z,960.38
2018-10-19T02:36:16.491Z,960.35
2018-10-19T02:37:16.513Z,960.37
2018-10-19T02:38:16.503Z,960.35
2018-10-19T02:39:16.583Z,960.32
2018-10-19T02:40:16.504Z,960.33
2018-10-19T02:41:16.551Z,960.33
2018-10-19T02:42:16.511Z,960.31
2018-10-19T02:43:16.515Z,960.34
2018-10-19T02:44:16.519Z,960.32
2018-10-19T02:45:16.638Z,960.37
2018-10-19T02:46:16.545Z,960.31
2018-10-19T02:47:16.635Z,960.31
2018-10-19T02:48:16.533Z,960.32
2018-10-19T02:49:16.537Z,960.35
2018-10-19T02:50:16.546Z,960.3
2018-10-19T02:51:16.564Z,960.32
2018-10-19T02:52:16.546Z,960.29
2018-10-19T02:53:16.631Z,960.3
2018-10-19T02:54:16.557Z,960.29
2018-10-19T02:55:16.561Z,960.25
2018-10-19T02:56:16.566Z,960.26
2018-10-19T02:57:16.695Z,960.21
2018-10-19T02:58:16.571Z,960.23
2018-10-19T02:59:16.630Z,960.26
2018-10-19T03:00:16.627Z,960.21
2018-10-19T03:01:16.581Z,960.25
2018-10-19T03:02:16.584Z,960.22
2018-10-19T03:03:16.651Z,960.26
2018-10-19T03:04:16.591Z,960.23
2018-10-19T03:05:16.680Z,960.21
2018-10-19T03:06:16.599Z,960.19
2018-10-19T03:07:16.601Z,960.19
2018-10-19T03:08:16.605Z,960.18
2018-10-19T03:09:16.620Z,960.2
2018-10-19T03:10:16.615Z,960.22
2018-10-19T03:11:16.749Z,960.22
2018-10-19T03:12:16.618Z,960.2
2018-10-19T03:13:16.623Z,960.2
2018-10-19T03:14:16.625Z,960.23
2018-10-19T03:15:16.823Z,960.24
2018-10-19T03:16:16.633Z,960.26
2018-10-19T03:17:16.687Z,960.25
2018-10-19T03:18:16.639Z,960.25
2018-10-19T03:19:16.643Z,960.27
2018-10-19T03:20:16.696Z,960.25
2018-10-19T03:21:16.781Z,960.31
2018-10-19T03:22:16.653Z,960.3
2018-10-19T03:23:16.699Z,960.3
2018-10-19T03:24:16.669Z,960.31
2018-10-19T03:25:16.669Z,960.28
2018-10-19T03:26:16.672Z,960.34
2018-10-19T03:27:16.826Z,960.35
2018-10-19T03:28:16.675Z,960.39
2018-10-19T03:29:16.682Z,960.34
2018-10-19T03:30:16.678Z,960.36
2018-10-19T03:31:16.710Z,960.39
2018-10-19T03:32:16.687Z,960.39
2018-10-19T03:33:16.785Z,960.39
2018-10-19T03:34:16.691Z,960.37
2018-10-19T03:35:16.817Z,960.39
2018-10-19T03:36:16.697Z,960.34
2018-10-19T03:37:16.756Z,960.29
2018-10-19T03:38:16.703Z,960.34
2018-10-19T03:39:16.727Z,960.35
2018-10-19T03:40:16.713Z,960.33
2018-10-19T03:41:16.886Z,960.32
2018-10-19T03:42:16.719Z,960.32
2018-10-19T03:43:16.723Z,960.37
2018-10-19T03:44:16.729Z,960.32
2018-10-19T03:45:16.818Z,960.35
2018-10-19T03:46:16.739Z,960.35
2018-10-19T03:47:16.858Z,960.36
2018-10-19T03:48:16.737Z,960.34
2018-10-19T03:49:16.878Z,960.37
2018-10-19T03:50:16.753Z,960.34
2018-10-19T03:51:16.878Z,960.35
2018-10-19T03:52:16.751Z,960.33
2018-10-19T03:53:16.872Z,960.31
2018-10-19T03:54:16.811Z,960.31
2018-10-19T03:55:16.763Z,960.33
2018-10-19T03:56:16.765Z,960.3
2018-10-19T03:57:16.858Z,960.37
2018-10-19T03:58:16.773Z,960.36
2018-10-19T03:59:16.835Z,960.35
2018-10-19T04:00:16.778Z,960.34
2018-10-19T04:01:16.780Z,960.36
2018-10-19T04:02:16.783Z,960.38
2018-10-19T04:03:16.838Z,960.34
2018-10-19T04:04:16.792Z,960.36
2018-10-19T04:05:16.941Z,960.36
2018-10-19T04:06:16.802Z,960.35
2018-10-19T04:07:16.802Z,960.37
2018-10-19T04:08:16.806Z,960.34
2018-10-19T04:09:16.910Z,960.36
2018-10-19T04:10:16.815Z,960.36
2018-10-19T04:11:16.922Z,960.36
2018-10-19T04:12:16.819Z,960.36
2018-10-19T04:13:16.822Z,960.38
2018-10-19T04:14:17.825Z,960.38
2018-10-19T04:15:16.917Z,960.38
2018-10-19T04:16:16.832Z,960.37
2018-10-19T04:17:16.961Z,960.44
2018-10-19T04:18:16.837Z,960.41
2018-10-19T04:19:16.844Z,960.42
2018-10-19T04:20:16.844Z,960.4
2018-10-19T04:21:16.929Z,960.4
2018-10-19T04:22:16.850Z,960.49
2018-10-19T04:23:17.027Z,960.46
2018-10-19T04:24:16.861Z,960.49
2018-10-19T04:25:16.860Z,960.44
2018-10-19T04:26:16.863Z,960.48
2018-10-19T04:27:17.010Z,960.5
2018-10-19T04:28:16.872Z,960.44
2018-10-19T04:29:16.918Z,960.44
2018-10-19T04:30:16.876Z,960.51
2018-10-19T04:31:16.882Z,960.51
2018-10-19T04:32:16.884Z,960.53
2018-10-19T04:33:16.956Z,960.48
2018-10-19T04:34:16.893Z,960.49
2018-10-19T04:35:16.991Z,960.49
2018-10-19T04:36:16.898Z,960.48
2018-10-19T04:37:16.921Z,960.46
2018-10-19T04:38:16.902Z,960.44
2018-10-19T04:39:16.950Z,960.45
2018-10-19T04:40:16.908Z,960.46
2018-10-19T04:41:17.006Z,960.42
2018-10-19T04:42:16.983Z,960.41
2018-10-19T04:43:16.918Z,960.46
2018-10-19T04:44:16.920Z,960.4
2018-10-19T04:45:16.967Z,960.44
2018-10-19T04:46:16.933Z,960.41
2018-10-19T04:47:16.933Z,960.41
2018-10-19T04:48:16.933Z,960.42
2018-10-19T04:49:16.936Z,960.41
2018-10-19T04:50:16.941Z,960.46
2018-10-19T04:51:16.988Z,960.44
2018-10-19T04:52:16.949Z,960.41
2018-10-19T04:53:17.045Z,960.4
2018-10-19T04:54:16.952Z,960.44
2018-10-19T04:55:16.956Z,960.47
2018-10-19T04:56:16.961Z,960.44
2018-10-19T04:57:16.986Z,960.45
2018-10-19T04:58:17.022Z,960.45
2018-10-19T04:59:17.009Z,960.46
2018-10-19T05:00:16.970Z,960.46
2018-10-19T05:01:16.974Z,960.45
2018-10-19T05:02:16.978Z,960.51
2018-10-19T05:03:17.093Z,960.5
2018-10-19T05:04:16.982Z,960.54
2018-10-19T05:05:17.101Z,960.56
2018-10-19T05:06:17.079Z,960.57
2018-10-19T05:07:16.992Z,960.56
2018-10-19T05:08:17.157Z,960.59
2018-10-19T05:09:16.997Z,960.59
2018-10-19T05:10:17.001Z,960.57
2018-10-19T05:11:17.105Z,960.58
2018-10-19T05:12:17.027Z,960.61
2018-10-19T05:13:17.064Z,960.63
2018-10-19T05:14:17.085Z,960.64
2018-10-19T05:15:17.015Z,960.65
2018-10-19T05:16:17.018Z,960.67
2018-10-19T05:17:17.105Z,960.65
2018-10-19T05:18:17.029Z,960.68
2018-10-19T05:19:17.027Z,960.71
2018-10-19T05:20:17.099Z,960.76
2018-10-19T05:21:17.184Z,960.74
2018-10-19T05:22:17.036Z,960.76
2018-10-19T05:23:17.177Z,960.78
2018-10-19T05:24:17.042Z,960.82
2018-10-19T05:25:17.046Z,960.84
2018-10-19T05:26:17.123Z,960.83
2018-10-19T05:27:17.052Z,960.83
2018-10-19T05:28:17.056Z,960.85
2018-10-19T05:29:17.175Z,960.85
2018-10-19T05:30:17.160Z,960.86
2018-10-19T05:31:17.069Z,960.9
2018-10-19T05:32:17.191Z,960.89
2018-10-19T05:33:17.069Z,960.89
2018-10-19T05:34:17.072Z,960.91
2018-10-19T05:35:17.361Z,960.89
2018-10-19T05:36:17.079Z,960.92
2018-10-19T05:37:17.082Z,960.9
2018-10-19T05:38:17.241Z,960.92
2018-10-19T05:39:17.089Z,960.92
2018-10-19T05:40:17.141Z,960.94
2018-10-19T05:41:17.177Z,960.91
2018-10-19T05:42:17.096Z,960.93
2018-10-19T05:43:17.111Z,960.97
2018-10-19T05:44:17.173Z,961
2018-10-19T05:45:17.104Z,960.97
2018-10-19T05:46:17.108Z,960.96
2018-10-19T05:47:17.199Z,961.02
2018-10-19T05:48:17.116Z,961.02
2018-10-19T05:49:17.117Z,961.04
2018-10-19T05:50:17.220Z,961.01
2018-10-19T05:51:17.127Z,961.06
2018-10-19T05:52:17.156Z,961.07
2018-10-19T05:53:17.230Z,961.11
2018-10-19T05:54:17.134Z,961.07
2018-10-19T05:55:17.186Z,961.1
2018-10-19T05:56:17.227Z,961.1
2018-10-19T05:57:17.140Z,961.11
2018-10-19T05:58:17.144Z,961.12
2018-10-19T05:59:17.251Z,961.15
2018-10-19T06:00:17.152Z,961.12
2018-10-19T06:01:17.155Z,961.11
2018-10-19T06:02:17.240Z,961.14
2018-10-19T06:03:17.161Z,961.13
2018-10-19T06:04:17.164Z,961.17
2018-10-19T06:05:17.272Z,961.2
2018-10-19T06:06:17.173Z,961.2
2018-10-19T06:07:17.173Z,961.18
2018-10-19T06:08:17.298Z,961.22
2018-10-19T06:09:17.180Z,961.24
2018-10-19T06:10:17.185Z,961.22
2018-10-19T06:11:17.309Z,961.29
2018-10-19T06:12:17.190Z,961.3
2018-10-19T06:13:17.194Z,961.3
2018-10-19T06:14:17.194Z,961.3
2018-10-19T06:15:17.204Z,961.3
2018-10-19T06:16:17.203Z,961.34
2018-10-19T06:17:17.203Z,961.29
2018-10-19T06:18:17.207Z,961.33
2018-10-19T06:19:17.214Z,961.35
2018-10-19T06:20:17.319Z,961.34
2018-10-19T06:21:17.319Z,961.34
2018-10-19T06:22:17.228Z,961.33
2018-10-19T06:23:17.306Z,961.37
2018-10-19T06:24:17.226Z,961.38
2018-10-19T06:25:17.278Z,961.33
2018-10-19T06:26:17.243Z,961.32
2018-10-19T06:27:17.239Z,961.34
2018-10-19T06:28:17.237Z,961.34
2018-10-19T06:29:17.383Z,961.36
2018-10-19T06:30:17.245Z,961.34
2018-10-19T06:31:17.247Z,961.35
2018-10-19T06:32:17.403Z,961.37
2018-10-19T06:33:17.253Z,961.36
2018-10-19T06:34:17.258Z,961.36
2018-10-19T06:35:17.315Z,961.39
2018-10-19T06:36:17.263Z,961.36
2018-10-19T06:37:17.289Z,961.35
2018-10-19T06:38:17.319Z,961.35
2018-10-19T06:39:17.272Z,961.38
2018-10-19T06:40:17.327Z,961.42
2018-10-19T06:41:17.377Z,961.4
2018-10-19T06:42:17.280Z,961.42
2018-10-19T06:43:17.283Z,961.43
2018-10-19T06:44:17.410Z,961.44
2018-10-19T06:45:17.319Z,961.45
2018-10-19T06:46:17.295Z,961.48
2018-10-19T06:47:17.430Z,961.43
2018-10-19T06:48:17.303Z,961.48
2018-10-19T06:49:17.311Z,961.53
2018-10-19T06:50:17.358Z,961.52
2018-10-19T06:51:17.312Z,961.55
2018-10-19T06:52:17.321Z,961.51
2018-10-19T06:53:17.322Z,961.54
2018-10-19T06:54:17.323Z,961.52
2018-10-19T06:55:17.326Z,961.51
2018-10-19T06:56:17.354Z,961.54
2018-10-19T06:57:17.336Z,961.54
2018-10-19T06:58:17.338Z,961.56
2018-10-19T06:59:17.438Z,961.59
2018-10-19T07:00:17.349Z,961.59
2018-10-19T07:01:17.347Z,961.58
2018-10-19T07:02:17.436Z,961.62
2018-10-19T07:03:17.356Z,961.65
2018-10-19T07:04:17.440Z,961.66
2018-10-19T07:05:17.364Z,961.68
2018-10-19T07:06:17.552Z,961.66
2018-10-19T07:07:17.371Z,961.66
2018-10-19T07:08:17.385Z,961.7
2018-10-19T07:09:17.379Z,961.72
2018-10-19T07:10:17.383Z,961.76
2018-10-19T07:11:17.386Z,961.74
2018-10-19T07:12:17.458Z,961.79
2018-10-19T07:13:17.393Z,961.76
2018-10-19T07:14:17.460Z,961.79
2018-10-19T07:15:17.398Z,961.76
2018-10-19T07:16:17.401Z,961.79
2018-10-19T07:17:17.405Z,961.77
2018-10-19T07:18:17.410Z,961.77
2018-10-19T07:19:17.464Z,961.81
2018-10-19T07:20:17.419Z,961.82
2018-10-19T07:21:17.424Z,961.76
2018-10-19T07:22:17.429Z,961.83
2018-10-19T07:23:17.431Z,961.84
2018-10-19T07:24:17.436Z,961.83
2018-10-19T07:25:17.440Z,961.88
2018-10-19T07:26:17.444Z,961.88
2018-10-19T07:27:17.446Z,961.87
2018-10-19T07:28:17.451Z,961.85
2018-10-19T07:29:17.566Z,961.91
2018-10-19T07:30:17.459Z,961.9
2018-10-19T07:31:17.464Z,961.9
2018-10-19T07:32:17.468Z,961.88
2018-10-19T07:33:17.472Z,961.88
2018-10-19T07:34:17.475Z,961.93
2018-10-19T07:35:17.585Z,961.9
2018-10-19T07:36:17.533Z,961.94
2018-10-19T07:37:17.489Z,961.9
2018-10-19T07:38:17.544Z,961.93
2018-10-19T07:39:17.503Z,961.92
2018-10-19T07:40:17.503Z,961.92
2018-10-19T07:41:17.507Z,961.99
2018-10-19T07:42:17.567Z,961.96
2018-10-19T07:43:17.516Z,961.96
2018-10-19T07:44:17.525Z,962
2018-10-19T07:45:17.523Z,961.95
2018-10-19T07:46:17.527Z,961.98
2018-10-19T07:47:17.699Z,961.94
2018-10-19T07:48:17.549Z,962
2018-10-19T07:49:17.541Z,962.01
2018-10-19T07:50:17.759Z,962.04
2018-10-19T07:51:17.551Z,962.03
2018-10-19T07:52:17.555Z,962.03
2018-10-19T07:53:17.559Z,962.03
2018-10-19T07:54:17.774Z,962.04
2018-10-19T07:55:17.569Z,961.99
2018-10-19T07:56:17.643Z,962.02
2018-10-19T07:57:17.577Z,962.04
2018-10-19T07:58:17.588Z,962.05
2018-10-19T07:59:17.587Z,962.03
2018-10-19T08:00:17.643Z,962.01
2018-10-19T08:01:17.673Z,962.01
2018-10-19T08:02:17.602Z,962.03
2018-10-19T08:03:17.606Z,962.08
2018-10-19T08:04:17.662Z,962.07
2018-10-19T08:05:17.728Z,962.09
2018-10-19T08:06:17.621Z,962.13
2018-10-19T08:07:17.626Z,962.15
2018-10-19T08:08:17.632Z,962.07
2018-10-19T08:09:17.686Z,962.14
2018-10-19T08:10:17.639Z,962.13
2018-10-19T08:11:17.777Z,962.12
2018-10-19T08:12:17.650Z,962.14
2018-10-19T08:13:17.674Z,962.13
2018-10-19T08:14:17.787Z,962.14
2018-10-19T08:15:17.664Z,962.14
2018-10-19T08:16:17.668Z,962.13
2018-10-19T08:17:17.676Z,962.13
2018-10-19T08:18:17.680Z,962.11
2018-10-19T08:19:17.688Z,962.15
2018-10-19T08:20:17.850Z,962.18
2018-10-19T08:21:17.824Z,962.16
2018-10-19T08:22:17.703Z,962.15
2018-10-19T08:23:17.707Z,962.16
2018-10-19T08:24:17.763Z,962.15
2018-10-19T08:25:17.721Z,962.15
2018-10-19T08:26:17.833Z,962.14
2018-10-19T08:27:17.748Z,962.11
2018-10-19T08:28:17.734Z,962.13
2018-10-19T08:29:17.739Z,962.14
2018-10-19T08:30:17.745Z,962.19
2018-10-19T08:31:17.752Z,962.18
2018-10-19T08:32:17.757Z,962.19
2018-10-19T08:33:17.760Z,962.21
2018-10-19T08:34:17.818Z,962.2
2018-10-19T08:35:17.774Z,962.24
2018-10-19T08:36:17.778Z,962.24
2018-10-19T08:37:17.806Z,962.24
2018-10-19T08:38:17.798Z,962.27
2018-10-19T08:39:17.797Z,962.27
2018-10-19T08:40:17.801Z,962.29
2018-10-19T08:41:17.896Z,962.32
2018-10-19T08:42:17.812Z,962.26
2018-10-19T08:43:17.976Z,962.27
2018-10-19T08:44:17.824Z,962.24
2018-10-19T08:45:17.898Z,962.26
2018-10-19T08:46:17.837Z,962.31
2018-10-19T08:47:17.852Z,962.34
2018-10-19T08:48:17.849Z,962.26
2018-10-19T08:49:17.954Z,962.31
2018-10-19T08:50:17.862Z,962.26
2018-10-19T08:51:17.971Z,962.3
2018-10-19T08:52:17.922Z,962.3
2018-10-19T08:53:17.882Z,962.29
2018-10-19T08:54:17.883Z,962.3
2018-10-19T08:55:17.892Z,962.35
2018-10-19T08:56:17.897Z,962.36
2018-10-19T08:57:18.029Z,962.36
2018-10-19T08:58:17.961Z,962.33
2018-10-19T08:59:18.047Z,962.34
2018-10-19T09:00:17.999Z,962.35
2018-10-19T09:01:17.984Z,962.37
2018-10-19T09:02:17.935Z,962.41
2018-10-19T09:03:17.980Z,962.44
2018-10-19T09:04:17.948Z,962.42
2018-10-19T09:05:17.956Z,962.43
2018-10-19T09:06:17.961Z,962.44
2018-10-19T09:07:17.968Z,962.44
2018-10-19T09:08:17.974Z,962.43
2018-10-19T09:09:17.980Z,962.45
2018-10-19T09:10:17.986Z,962.43
2018-10-19T09:11:18.026Z,962.44
2018-10-19T09:12:18.001Z,962.42
2018-10-19T09:13:18.007Z,962.43
2018-10-19T09:14:18.015Z,962.42
2018-10-19T09:15:18.079Z,962.45
2018-10-19T09:16:18.027Z,962.43
2018-10-19T09:17:18.185Z,962.44
2018-10-19T09:18:18.046Z,962.39
2018-10-19T09:19:18.047Z,962.44
2018-10-19T09:20:18.052Z,962.42
2018-10-19T09:21:18.060Z,962.44
2018-10-19T09:22:18.066Z,962.47
2018-10-19T09:23:18.075Z,962.46
2018-10-19T09:24:18.079Z,962.41
2018-10-19T09:25:18.086Z,962.43
2018-10-19T09:26:18.092Z,962.43
2018-10-19T09:27:18.097Z,962.43
2018-10-19T09:28:18.105Z,962.41
2018-10-19T09:29:18.122Z,962.44
2018-10-19T09:30:18.118Z,962.43
2018-10-19T09:31:18.126Z,962.43
2018-10-19T09:32:18.130Z,962.4
2018-10-19T09:33:18.141Z,962.38
2018-10-19T09:34:18.145Z,962.39
2018-10-19T09:35:18.307Z,962.36
2018-10-19T09:36:18.426Z,962.36
2018-10-19T09:37:18.166Z,962.39
2018-10-19T09:38:18.221Z,962.36
2018-10-19T09:39:18.177Z,962.38
2018-10-19T09:40:18.275Z,962.4
2018-10-19T09:41:18.198Z,962.38
2018-10-19T09:42:18.197Z,962.35
2018-10-19T09:43:18.303Z,962.35
2018-10-19T09:44:18.212Z,962.35
2018-10-19T09:45:18.217Z,962.42
2018-10-19T09:46:18.224Z,962.45
2018-10-19T09:47:18.239Z,962.43
2018-10-19T09:48:18.239Z,962.44
2018-10-19T09:49:18.245Z,962.41
2018-10-19T09:50:18.256Z,962.43
2018-10-19T09:51:18.263Z,962.43
2018-10-19T09:52:18.272Z,962.42
2018-10-19T09:53:18.274Z,962.42
2018-10-19T09:54:18.281Z,962.45
2018-10-19T09:55:18.388Z,962.42
2018-10-19T09:56:18.436Z,962.43
2018-10-19T09:57:18.353Z,962.46
2018-10-19T09:58:18.312Z,962.43
2018-10-19T09:59:18.353Z,962.41
2018-10-19T10:00:18.324Z,962.47
2018-10-19T10:01:18.456Z,962.48
2018-10-19T10:02:18.388Z,962.52
2018-10-19T10:03:18.349Z,962.54
2018-10-19T10:04:18.353Z,962.55
2018-10-19T10:05:18.385Z,962.57
2018-10-19T10:06:18.370Z,962.57
2018-10-19T10:07:18.378Z,962.55
2018-10-19T10:08:18.386Z,962.56
2018-10-19T10:09:18.394Z,962.58
2018-10-19T10:10:18.403Z,962.58
2018-10-19T10:11:18.412Z,962.55
2018-10-19T10:12:18.417Z,962.54
2018-10-19T10:13:18.429Z,962.53
2018-10-19T10:14:18.435Z,962.56
2018-10-19T10:15:18.525Z,962.59
2018-10-19T10:16:18.453Z,962.57
2018-10-19T10:17:18.461Z,962.57
2018-10-19T10:18:18.469Z,962.61
2018-10-19T10:19:18.485Z,962.59
2018-10-19T10:20:18.542Z,962.55
2018-10-19T10:21:18.498Z,962.56
2018-10-19T10:22:18.507Z,962.6
2018-10-19T10:23:18.517Z,962.65
2018-10-19T10:24:18.527Z,962.53
2018-10-19T10:25:18.619Z,962.52
2018-10-19T10:26:18.547Z,962.52
2018-10-19T10:27:18.608Z,962.53
2018-10-19T10:28:18.569Z,962.5
2018-10-19T10:29:18.577Z,962.47
2018-10-19T10:30:18.590Z,962.47
2018-10-19T10:31:18.601Z,962.52
2018-10-19T10:32:18.628Z,962.54
2018-10-19T10:33:18.622Z,962.5
2018-10-19T10:34:18.635Z,962.5
2018-10-19T10:35:18.644Z,962.5
2018-10-19T10:36:18.654Z,962.49
2018-10-19T10:37:18.666Z,962.48
2018-10-19T10:38:18.677Z,962.5
2018-10-19T10:39:18.835Z,962.46
2018-10-19T10:40:18.800Z,962.48
2018-10-19T10:41:18.712Z,962.48
2018-10-19T10:42:18.721Z,962.45
2018-10-19T10:43:18.734Z,962.42
2018-10-19T10:44:18.745Z,962.51
2018-10-19T10:45:18.756Z,962.46
2018-10-19T10:46:18.768Z,962.48
2018-10-19T10:47:18.783Z,962.49
2018-10-19T10:48:18.792Z,962.49
2018-10-19T10:49:18.806Z,962.47
2018-10-19T10:50:18.816Z,962.46
2018-10-19T10:51:18.828Z,962.49
2018-10-19T10:52:18.843Z,962.48
2018-10-19T10:53:18.851Z,962.55
2018-10-19T10:54:18.871Z,962.48
2018-10-19T10:55:18.948Z,962.49
2018-10-19T10:56:18.887Z,962.5
2018-10-19T10:57:18.900Z,962.52
2018-10-19T10:58:18.914Z,962.52
2018-10-19T10:59:18.959Z,962.47
2018-10-19T11:00:18.940Z,962.47
2018-10-19T11:01:18.953Z,962.48
2018-10-19T11:02:18.966Z,962.48
2018-10-19T11:03:18.979Z,962.51
2018-10-19T11:04:19.049Z,962.5
2018-10-19T11:05:19.007Z,962.44
2018-10-19T11:06:19.020Z,962.48
2018-10-19T11:07:19.167Z,962.51
2018-10-19T11:08:19.050Z,962.5
2018-10-19T11:09:19.064Z,962.49
2018-10-19T11:10:19.080Z,962.47
2018-10-19T11:11:19.092Z,962.5
2018-10-19T11:12:19.105Z,962.49
2018-10-19T11:13:19.120Z,962.48
2018-10-19T11:14:19.140Z,962.47
2018-10-19T11:15:19.150Z,962.48
2018-10-19T11:16:19.165Z,962.49
2018-10-19T11:17:19.188Z,962.49
2018-10-19T11:18:19.194Z,962.45
2018-10-19T11:19:19.208Z,962.5
2018-10-19T11:20:19.222Z,962.46
2018-10-19T11:21:19.237Z,962.51
2018-10-19T11:22:19.303Z,962.51
2018-10-19T11:23:19.270Z,962.48
2018-10-19T11:24:19.283Z,962.45
2018-10-19T11:25:19.300Z,962.5
2018-10-19T11:26:19.316Z,962.5
2018-10-19T11:27:19.332Z,962.5
2018-10-19T11:28:19.367Z,962.5
2018-10-19T11:29:19.361Z,962.48
2018-10-19T11:30:19.377Z,962.49
2018-10-19T11:31:19.392Z,962.41
2018-10-19T11:32:19.413Z,962.44
2018-10-19T11:33:19.432Z,962.46
2018-10-19T11:34:19.443Z,962.44
2018-10-19T11:35:19.460Z,962.42
2018-10-19T11:36:19.474Z,962.4
2018-10-19T11:37:19.605Z,962.42
2018-10-19T11:38:19.508Z,962.4
2018-10-19T11:39:19.524Z,962.36
2018-10-19T11:40:19.549Z,962.34
2018-10-19T11:41:19.559Z,962.36
2018-10-19T11:42:19.576Z,962.35
2018-10-19T11:43:19.653Z,962.36
2018-10-19T11:44:19.610Z,962.33
2018-10-19T11:45:19.628Z,962.36
2018-10-19T11:46:19.644Z,962.36
2018-10-19T11:47:19.660Z,962.37
2018-10-19T11:48:19.680Z,962.29
2018-10-19T11:49:19.755Z,962.32
2018-10-19T11:50:19.718Z,962.31
2018-10-19T11:51:19.732Z,962.31
2018-10-19T11:52:19.755Z,962.33
2018-10-19T11:53:19.818Z,962.31
2018-10-19T11:54:19.787Z,962.24
2018-10-19T11:55:19.809Z,962.29
2018-10-19T11:56:19.822Z,962.27
2018-10-19T11:57:19.840Z,962.28
2018-10-19T11:58:19.858Z,962.29
2018-10-19T11:59:19.876Z,962.27
2018-10-19T12:00:19.898Z,962.28
2018-10-19T12:01:19.914Z,962.28
2018-10-19T12:02:19.932Z,962.17
2018-10-19T12:03:20.002Z,962.21
2018-10-19T12:04:19.972Z,962.19
2018-10-19T12:05:20.001Z,962.21
2018-10-19T12:06:20.008Z,962.18
2018-10-19T12:07:20.026Z,962.21
2018-10-19T12:08:20.049Z,962.19
2018-10-19T12:09:20.063Z,962.19
2018-10-19T12:10:20.086Z,962.2
2018-10-19T12:11:20.103Z,962.22
2018-10-19T12:12:20.119Z,962.2
2018-10-19T12:13:20.144Z,962.15
2018-10-19T12:14:20.159Z,962.2
2018-10-19T12:15:20.178Z,962.16
2018-10-19T12:16:20.297Z,962.13
2018-10-19T12:17:20.216Z,962.12
2018-10-19T12:18:20.234Z,962.13
2018-10-19T12:19:20.254Z,962.16
2018-10-19T12:20:20.286Z,962.15
2018-10-19T12:21:20.352Z,962.12
2018-10-19T12:22:20.312Z,962.18
2018-10-19T12:23:20.383Z,962.13
2018-10-19T12:24:20.351Z,962.15
2018-10-19T12:25:20.370Z,962.1
2018-10-19T12:26:20.389Z,962.16
2018-10-19T12:27:20.410Z,962.14
2018-10-19T12:28:20.429Z,962.1
2018-10-19T12:29:20.449Z,962.12
2018-10-19T12:30:20.478Z,962.08
2018-10-19T12:31:20.488Z,962.1